createdAt,value
2017-05-10T00:00:12.629Z,21.22
2017-05-10T00:01:12.298Z,21.20
2017-05-10T00:02:10.392Z,21.19
2017-05-10T00:03:12.395Z,21.71
2017-05-10T00:04:13.334Z,21.77
2017-05-10T00:05:12.987Z,21.80
2017-05-10T00:06:13.356Z,21.79
2017-05-10T00:07:13.069Z,21.81
2017-05-10T00:08:12.642Z,21.31
2017-05-10T00:09:11.196Z,21.24
2017-05-10T00:10:13.449Z,21.22
2017-05-10T00:11:12.818Z,21.21
2017-05-10T00:12:12.816Z,21.21
2017-05-10T00:13:12.568Z,21.19
2017-05-10T00:14:13.585Z,21.21
2017-05-10T00:15:13.328Z,21.19
2017-05-10T00:16:14.649Z,21.19
2017-05-10T00:17:11.420Z,21.19
2017-05-10T00:18:13.779Z,21.22
2017-05-10T00:19:12.636Z,21.19
2017-05-10T00:20:12.780Z,21.19
2017-05-10T00:21:13.344Z,21.19
2017-05-10T00:22:12.899Z,21.19
2017-05-10T00:23:10.299Z,21.18
2017-05-10T00:24:14.357Z,21.18
2017-05-10T00:25:09.994Z,21.18
2017-05-10T00:26:10.468Z,21.18
2017-05-10T00:27:12.598Z,21.19
2017-05-10T00:28:12.369Z,21.19
2017-05-10T00:29:13.208Z,21.23
2017-05-10T00:30:13.473Z,21.19
2017-05-10T00:31:13.266Z,21.24
2017-05-10T00:32:13.321Z,21.19
2017-05-10T00:33:12.815Z,21.19
2017-05-10T00:34:13.290Z,21.19
2017-05-10T00:35:12.725Z,21.18
2017-05-10T00:36:12.455Z,21.19
2017-05-10T00:37:10.398Z,21.18
2017-05-10T00:38:13.290Z,21.18
2017-05-10T00:39:13.679Z,21.20
2017-05-10T00:40:12.682Z,21.19
2017-05-10T00:41:14.239Z,21.18
2017-05-10T00:42:12.872Z,21.18
2017-05-10T00:43:12.640Z,21.19
2017-05-10T00:44:12.703Z,21.18
2017-05-10T00:45:13.376Z,21.18
2017-05-10T00:46:13.302Z,21.18
2017-05-10T00:47:11.426Z,21.18
2017-05-10T00:48:12.361Z,21.19
2017-05-10T00:49:13.105Z,21.19
2017-05-10T00:50:11.239Z,21.19
2017-05-10T00:51:13.728Z,21.19
2017-05-10T00:52:14.109Z,21.18
2017-05-10T00:53:11.139Z,21.18
2017-05-10T00:54:14.304Z,21.71
2017-05-10T00:55:13.264Z,21.76
2017-05-10T00:56:10.380Z,21.79
2017-05-10T00:57:12.562Z,21.26
2017-05-10T00:58:12.690Z,21.24
2017-05-10T00:59:13.489Z,21.20
2017-05-10T01:00:13.379Z,21.19
2017-05-10T01:01:13.048Z,21.20
2017-05-10T01:02:13.496Z,21.18
2017-05-10T01:03:12.933Z,21.19
2017-05-10T01:04:12.785Z,21.18
2017-05-10T01:05:10.653Z,21.18
2017-05-10T01:06:12.835Z,21.18
2017-05-10T01:07:12.738Z,21.19
2017-05-10T01:08:12.879Z,21.19
2017-05-10T01:09:13.738Z,21.18
2017-05-10T01:10:13.017Z,21.18
2017-05-10T01:11:12.891Z,21.18
2017-05-10T01:12:13.403Z,21.18
2017-05-10T01:13:14.139Z,21.17
2017-05-10T01:14:12.790Z,21.21
2017-05-10T01:15:13.863Z,21.17
2017-05-10T01:16:10.294Z,21.17
2017-05-10T01:17:15.532Z,21.18
2017-05-10T01:18:11.176Z,21.17
2017-05-10T01:19:13.035Z,21.18
2017-05-10T01:20:13.199Z,21.17
2017-05-10T01:21:12.830Z,21.23
2017-05-10T01:22:13.169Z,21.19
2017-05-10T01:23:13.042Z,21.18
2017-05-10T01:24:12.856Z,21.18
2017-05-10T01:25:12.852Z,21.17
2017-05-10T01:26:13.165Z,21.18
2017-05-10T01:27:11.323Z,21.18
2017-05-10T01:28:12.836Z,21.17
2017-05-10T01:29:12.302Z,21.18
2017-05-10T01:30:14.924Z,21.17
2017-05-10T01:31:12.761Z,21.18
2017-05-10T01:32:12.539Z,21.17
2017-05-10T01:33:13.276Z,21.17
2017-05-10T01:34:12.086Z,21.16
2017-05-10T01:35:12.611Z,21.17
2017-05-10T01:36:12.307Z,21.17
2017-05-10T01:37:12.851Z,21.22
2017-05-10T01:38:12.729Z,21.17
2017-05-10T01:39:14.058Z,21.17
2017-05-10T01:40:09.626Z,21.16
2017-05-10T01:41:13.725Z,21.17
2017-05-10T01:42:12.415Z,21.17
2017-05-10T01:43:14.655Z,21.17
2017-05-10T01:44:12.588Z,21.18
2017-05-10T01:45:13.998Z,21.18
2017-05-10T01:46:13.346Z,21.18
2017-05-10T01:47:13.333Z,21.17
2017-05-10T01:48:12.778Z,21.18
2017-05-10T01:49:14.121Z,21.17
2017-05-10T01:50:13.807Z,21.18
2017-05-10T01:51:12.600Z,21.18
2017-05-10T01:52:12.321Z,21.17
2017-05-10T01:53:11.000Z,21.17
2017-05-10T01:54:14.282Z,21.69
2017-05-10T01:55:13.446Z,21.42
2017-05-10T01:56:12.930Z,21.24
2017-05-10T01:57:13.743Z,21.19
2017-05-10T01:58:10.896Z,21.19
2017-05-10T01:59:10.705Z,21.18
2017-05-10T02:00:12.625Z,21.18
2017-05-10T02:01:13.244Z,21.17
2017-05-10T02:02:12.810Z,21.17
2017-05-10T02:03:09.392Z,21.16
2017-05-10T02:04:12.514Z,21.16
2017-05-10T02:05:13.158Z,21.17
2017-05-10T02:06:12.849Z,21.17
2017-05-10T02:07:12.666Z,21.17
2017-05-10T02:08:12.858Z,21.18
2017-05-10T02:09:15.846Z,21.16
2017-05-10T02:10:12.675Z,21.16
2017-05-10T02:11:13.311Z,21.16
2017-05-10T02:12:12.446Z,21.15
2017-05-10T02:13:13.034Z,21.36
2017-05-10T02:14:10.584Z,21.21
2017-05-10T02:15:13.115Z,21.18
2017-05-10T02:16:13.021Z,21.17
2017-05-10T02:17:12.835Z,21.17
2017-05-10T02:18:13.252Z,21.16
2017-05-10T02:19:12.805Z,21.17
2017-05-10T02:20:13.114Z,21.16
2017-05-10T02:21:13.476Z,21.16
2017-05-10T02:22:13.134Z,21.16
2017-05-10T02:23:13.795Z,21.16
2017-05-10T02:24:13.734Z,21.15
2017-05-10T02:25:12.815Z,21.16
2017-05-10T02:26:12.670Z,21.15
2017-05-10T02:27:12.419Z,21.16
2017-05-10T02:28:13.107Z,21.15
2017-05-10T02:29:13.470Z,21.16
2017-05-10T02:30:13.439Z,21.16
2017-05-10T02:31:14.073Z,21.15
2017-05-10T02:32:12.895Z,21.15
2017-05-10T02:33:12.976Z,21.16
2017-05-10T02:34:12.870Z,21.16
2017-05-10T02:35:12.601Z,21.16
2017-05-10T02:36:12.647Z,21.16
2017-05-10T02:37:13.107Z,21.16
2017-05-10T02:38:13.493Z,21.16
2017-05-10T02:39:14.393Z,21.16
2017-05-10T02:40:14.420Z,21.16
2017-05-10T02:41:16.521Z,21.15
2017-05-10T02:42:12.554Z,21.15
2017-05-10T02:43:10.528Z,21.15
2017-05-10T02:44:13.311Z,21.19
2017-05-10T02:45:14.254Z,21.69
2017-05-10T02:46:11.135Z,21.73
2017-05-10T02:47:15.084Z,21.36
2017-05-10T02:48:13.213Z,21.26
2017-05-10T02:49:12.829Z,21.72
2017-05-10T02:50:12.769Z,21.75
2017-05-10T02:51:12.543Z,21.77
2017-05-10T02:52:12.533Z,21.77
2017-05-10T02:53:13.683Z,21.46
2017-05-10T02:54:13.827Z,21.25
2017-05-10T02:55:13.352Z,21.20
2017-05-10T02:56:10.627Z,21.17
2017-05-10T02:57:13.249Z,21.20
2017-05-10T02:58:12.875Z,21.22
2017-05-10T02:59:12.612Z,21.17
2017-05-10T03:00:12.427Z,21.16
2017-05-10T03:01:13.025Z,21.17
2017-05-10T03:02:13.009Z,21.20
2017-05-10T03:03:14.306Z,21.16
2017-05-10T03:04:13.447Z,21.18
2017-05-10T03:05:10.646Z,21.16
2017-05-10T03:06:12.581Z,21.69
2017-05-10T03:07:13.371Z,21.73
2017-05-10T03:08:12.938Z,21.24
2017-05-10T03:09:15.526Z,21.20
2017-05-10T03:10:10.771Z,21.17
2017-05-10T03:11:13.095Z,21.71
2017-05-10T03:12:12.606Z,21.73
2017-05-10T03:13:09.995Z,21.76
2017-05-10T03:14:13.110Z,21.77
2017-05-10T03:15:13.052Z,21.44
2017-05-10T03:16:12.587Z,21.25
2017-05-10T03:17:13.007Z,21.26
2017-05-10T03:18:12.587Z,21.19
2017-05-10T03:19:13.120Z,21.18
2017-05-10T03:20:13.127Z,21.19
2017-05-10T03:21:12.802Z,21.17
2017-05-10T03:22:12.500Z,21.17
2017-05-10T03:23:11.340Z,21.16
2017-05-10T03:24:14.622Z,21.69
2017-05-10T03:25:09.906Z,21.74
2017-05-10T03:26:12.548Z,21.75
2017-05-10T03:27:11.000Z,21.77
2017-05-10T03:28:12.995Z,21.25
2017-05-10T03:29:12.607Z,21.20
2017-05-10T03:30:12.365Z,21.18
2017-05-10T03:31:15.454Z,21.17
2017-05-10T03:32:13.958Z,21.16
2017-05-10T03:33:10.255Z,21.16
2017-05-10T03:34:12.875Z,21.16
2017-05-10T03:35:13.093Z,21.15
2017-05-10T03:36:10.887Z,21.16
2017-05-10T03:37:12.430Z,21.16
2017-05-10T03:38:13.361Z,21.16
2017-05-10T03:39:15.238Z,21.16
2017-05-10T03:40:13.005Z,21.15
2017-05-10T03:41:14.406Z,21.14
2017-05-10T03:42:12.835Z,21.16
2017-05-10T03:43:12.573Z,21.16
2017-05-10T03:44:12.211Z,21.16
2017-05-10T03:45:13.277Z,21.15
2017-05-10T03:46:13.244Z,21.15
2017-05-10T03:47:12.980Z,21.15
2017-05-10T03:48:13.289Z,21.15
2017-05-10T03:49:13.452Z,21.16
2017-05-10T03:50:12.376Z,21.15
2017-05-10T03:51:13.226Z,21.15
2017-05-10T03:52:13.420Z,21.16
2017-05-10T03:53:13.426Z,21.15
2017-05-10T03:54:14.055Z,21.15
2017-05-10T03:55:13.265Z,21.15
2017-05-10T03:56:12.962Z,21.15
2017-05-10T03:57:12.604Z,21.15
2017-05-10T03:58:10.531Z,21.14
2017-05-10T03:59:13.646Z,21.14
2017-05-10T04:00:12.588Z,21.18
2017-05-10T04:01:12.855Z,21.14
2017-05-10T04:02:13.452Z,21.15
2017-05-10T04:03:13.492Z,21.15
2017-05-10T04:04:13.522Z,21.15
2017-05-10T04:05:10.777Z,21.14
2017-05-10T04:06:14.401Z,21.14
2017-05-10T04:07:12.936Z,21.15
2017-05-10T04:08:10.601Z,21.14
2017-05-10T04:09:14.332Z,21.15
2017-05-10T04:10:13.157Z,21.14
2017-05-10T04:11:12.629Z,21.14
2017-05-10T04:12:12.926Z,21.14
2017-05-10T04:13:12.802Z,21.14
2017-05-10T04:14:12.596Z,21.13
2017-05-10T04:15:12.212Z,21.12
2017-05-10T04:16:13.034Z,21.18
2017-05-10T04:17:12.958Z,21.14
2017-05-10T04:18:13.008Z,21.13
2017-05-10T04:19:12.852Z,21.13
2017-05-10T04:20:14.476Z,21.13
2017-05-10T04:21:13.677Z,21.13
2017-05-10T04:22:12.413Z,21.13
2017-05-10T04:23:13.349Z,21.16
2017-05-10T04:24:13.977Z,21.12
2017-05-10T04:25:13.711Z,21.64
2017-05-10T04:26:13.022Z,21.69
2017-05-10T04:27:12.620Z,21.35
2017-05-10T04:28:12.564Z,21.19
2017-05-10T04:29:14.599Z,21.15
2017-05-10T04:30:12.476Z,21.13
2017-05-10T04:31:12.793Z,21.11
2017-05-10T04:32:12.973Z,21.11
2017-05-10T04:33:12.709Z,21.11
2017-05-10T04:34:15.351Z,21.11
2017-05-10T04:35:12.020Z,21.09
2017-05-10T04:36:13.138Z,21.11
2017-05-10T04:37:13.395Z,21.18
2017-05-10T04:38:16.670Z,21.11
2017-05-10T04:39:13.641Z,21.11
2017-05-10T04:40:13.098Z,21.11
2017-05-10T04:41:14.527Z,21.12
2017-05-10T04:42:11.176Z,21.10
2017-05-10T04:43:12.410Z,21.11
2017-05-10T04:44:10.646Z,21.10
2017-05-10T04:45:12.759Z,21.11
2017-05-10T04:46:13.230Z,21.11
2017-05-10T04:47:13.313Z,21.17
2017-05-10T04:48:13.187Z,21.10
2017-05-10T04:49:13.441Z,21.10
2017-05-10T04:50:13.514Z,21.11
2017-05-10T04:51:13.739Z,21.16
2017-05-10T04:52:12.594Z,21.10
2017-05-10T04:53:14.127Z,21.10
2017-05-10T04:54:14.527Z,21.11
2017-05-10T04:55:11.613Z,21.11
2017-05-10T04:56:09.743Z,21.63
2017-05-10T04:57:13.363Z,21.68
2017-05-10T04:58:13.722Z,21.71
2017-05-10T04:59:12.727Z,21.71
2017-05-10T05:00:12.799Z,21.20
2017-05-10T05:01:12.899Z,21.16
2017-05-10T05:02:12.646Z,21.13
2017-05-10T05:03:15.046Z,21.12
2017-05-10T05:04:12.901Z,21.12
2017-05-10T05:05:14.673Z,21.12
2017-05-10T05:06:12.688Z,21.11
2017-05-10T05:07:13.041Z,21.11
2017-05-10T05:08:13.429Z,21.11
2017-05-10T05:09:17.857Z,21.10
2017-05-10T05:10:13.499Z,21.11
2017-05-10T05:11:14.384Z,21.10
2017-05-10T05:12:14.127Z,21.10
2017-05-10T05:13:13.230Z,21.12
2017-05-10T05:14:10.166Z,21.10
2017-05-10T05:15:13.175Z,21.11
2017-05-10T05:16:13.603Z,21.11
2017-05-10T05:17:13.290Z,21.13
2017-05-10T05:18:09.660Z,21.10
2017-05-10T05:19:12.846Z,21.16
2017-05-10T05:20:13.121Z,21.14
2017-05-10T05:21:13.047Z,21.11
2017-05-10T05:22:13.427Z,21.12
2017-05-10T05:23:11.361Z,21.10
2017-05-10T05:24:13.783Z,21.13
2017-05-10T05:25:12.497Z,21.11
2017-05-10T05:26:12.775Z,21.10
2017-05-10T05:27:12.666Z,21.10
2017-05-10T05:28:12.850Z,21.14
2017-05-10T05:29:12.728Z,21.10
2017-05-10T05:30:12.507Z,21.10
2017-05-10T05:31:13.829Z,21.10
2017-05-10T05:32:13.580Z,21.10
2017-05-10T05:33:10.732Z,21.10
2017-05-10T05:34:12.759Z,21.16
2017-05-10T05:35:12.878Z,21.13
2017-05-10T05:36:13.375Z,21.11
2017-05-10T05:37:13.202Z,21.11
2017-05-10T05:38:13.056Z,21.11
2017-05-10T05:39:14.087Z,21.12
2017-05-10T05:40:12.647Z,21.64
2017-05-10T05:41:13.059Z,21.69
2017-05-10T05:42:09.820Z,21.71
2017-05-10T05:43:12.781Z,21.73
2017-05-10T05:44:13.297Z,21.21
2017-05-10T05:45:13.375Z,21.19
2017-05-10T05:46:13.188Z,21.15
2017-05-10T05:47:13.401Z,21.13
2017-05-10T05:48:13.431Z,21.13
2017-05-10T05:49:13.136Z,21.13
2017-05-10T05:50:13.449Z,21.12
2017-05-10T05:51:13.211Z,21.18
2017-05-10T05:52:12.905Z,21.12
2017-05-10T05:53:13.246Z,21.14
2017-05-10T05:54:14.205Z,21.12
2017-05-10T05:55:13.438Z,21.11
2017-05-10T05:56:13.248Z,21.17
2017-05-10T05:57:13.382Z,21.12
2017-05-10T05:58:13.272Z,21.12
2017-05-10T05:59:13.190Z,21.12
2017-05-10T06:00:14.090Z,21.31
2017-05-10T06:01:13.670Z,21.17
2017-05-10T06:02:14.840Z,21.14
2017-05-10T06:03:13.209Z,21.13
2017-05-10T06:04:13.358Z,21.13
2017-05-10T06:05:09.920Z,21.12
2017-05-10T06:06:13.076Z,21.12
2017-05-10T06:07:12.745Z,21.12
2017-05-10T06:08:13.138Z,21.12
2017-05-10T06:09:13.484Z,21.13
2017-05-10T06:10:13.509Z,21.16
2017-05-10T06:11:12.543Z,21.15
2017-05-10T06:12:13.870Z,21.13
2017-05-10T06:13:12.611Z,21.13
2017-05-10T06:14:12.465Z,21.12
2017-05-10T06:15:13.419Z,21.12
2017-05-10T06:16:13.593Z,21.15
2017-05-10T06:17:13.068Z,21.12
2017-05-10T06:18:13.315Z,21.13
2017-05-10T06:19:12.854Z,21.14
2017-05-10T06:20:12.653Z,21.14
2017-05-10T06:21:12.293Z,21.14
2017-05-10T06:22:13.789Z,21.13
2017-05-10T06:23:12.965Z,21.13
2017-05-10T06:24:14.513Z,21.13
2017-05-10T06:25:13.080Z,21.12
2017-05-10T06:26:13.562Z,21.12
2017-05-10T06:27:12.302Z,21.13
2017-05-10T06:28:12.943Z,21.13
2017-05-10T06:29:14.308Z,21.11
2017-05-10T06:30:13.136Z,21.11
2017-05-10T06:31:12.960Z,21.11
2017-05-10T06:32:12.820Z,21.11
2017-05-10T06:33:12.917Z,21.14
2017-05-10T06:34:12.981Z,21.62
2017-05-10T06:35:13.316Z,21.68
2017-05-10T06:36:13.782Z,21.71
2017-05-10T06:37:12.356Z,21.72
2017-05-10T06:38:13.397Z,21.37
2017-05-10T06:39:15.892Z,21.19
2017-05-10T06:40:13.470Z,21.16
2017-05-10T06:41:13.419Z,21.14
2017-05-10T06:42:13.297Z,21.12
2017-05-10T06:43:13.582Z,21.12
2017-05-10T06:44:13.729Z,21.13
2017-05-10T06:45:13.704Z,21.14
2017-05-10T06:46:12.623Z,21.13
2017-05-10T06:47:12.615Z,21.13
2017-05-10T06:48:12.625Z,21.14
2017-05-10T06:49:12.462Z,21.15
2017-05-10T06:50:13.614Z,21.14
2017-05-10T06:51:12.573Z,21.14
2017-05-10T06:52:12.824Z,21.13
2017-05-10T06:53:12.795Z,21.13
2017-05-10T06:54:13.795Z,21.14
2017-05-10T06:55:10.484Z,21.11
2017-05-10T06:56:10.805Z,21.11
2017-05-10T06:57:14.104Z,21.11
2017-05-10T06:58:13.687Z,21.11
2017-05-10T06:59:14.328Z,21.23
2017-05-10T07:00:13.884Z,21.35
2017-05-10T07:01:14.341Z,21.46
2017-05-10T07:02:14.609Z,21.63
2017-05-10T07:03:12.907Z,21.91
2017-05-10T07:04:13.331Z,22.11
2017-05-10T07:05:14.071Z,21.91
2017-05-10T07:06:13.166Z,21.78
2017-05-10T07:07:10.379Z,21.68
2017-05-10T07:08:14.177Z,21.59
2017-05-10T07:09:14.314Z,21.54
2017-05-10T07:10:13.295Z,21.47
2017-05-10T07:11:14.090Z,21.43
2017-05-10T07:12:13.814Z,21.38
2017-05-10T07:13:14.556Z,21.33
2017-05-10T07:14:12.984Z,21.30
2017-05-10T07:15:11.223Z,21.27
2017-05-10T07:16:13.108Z,21.25
2017-05-10T07:17:13.246Z,21.23
2017-05-10T07:18:13.232Z,21.22
2017-05-10T07:19:14.947Z,21.19
2017-05-10T07:20:11.183Z,21.17
2017-05-10T07:21:13.392Z,21.15
2017-05-10T07:22:13.660Z,21.66
2017-05-10T07:23:13.093Z,21.69
2017-05-10T07:24:13.827Z,21.19
2017-05-10T07:25:13.513Z,21.14
2017-05-10T07:26:14.279Z,21.10
2017-05-10T07:27:13.632Z,21.09
2017-05-10T07:28:10.871Z,21.07
2017-05-10T07:29:12.369Z,21.60
2017-05-10T07:30:14.192Z,21.31
2017-05-10T07:31:12.870Z,21.11
2017-05-10T07:32:12.824Z,21.06
2017-05-10T07:33:12.847Z,21.03
2017-05-10T07:34:13.369Z,21.02
2017-05-10T07:35:13.245Z,21.02
2017-05-10T07:36:12.873Z,21.02
2017-05-10T07:37:12.656Z,21.02
2017-05-10T07:38:12.811Z,21.02
2017-05-10T07:39:14.221Z,21.02
2017-05-10T07:40:13.028Z,21.01
2017-05-10T07:41:12.863Z,21.02
2017-05-10T07:42:13.147Z,21.06
2017-05-10T07:43:15.565Z,21.02
2017-05-10T07:44:12.636Z,21.02
2017-05-10T07:45:12.858Z,21.04
2017-05-10T07:46:12.867Z,21.01
2017-05-10T07:47:13.511Z,21.02
2017-05-10T07:48:13.290Z,21.02
2017-05-10T07:49:13.703Z,21.02
2017-05-10T07:50:12.897Z,21.03
2017-05-10T07:51:13.311Z,21.04
2017-05-10T07:52:13.406Z,21.05
2017-05-10T07:53:12.929Z,21.12
2017-05-10T07:54:11.385Z,21.05
2017-05-10T07:55:13.753Z,21.07
2017-05-10T07:56:11.066Z,21.06
2017-05-10T07:57:12.801Z,21.07
2017-05-10T07:58:14.491Z,21.08
2017-05-10T07:59:21.182Z,21.08
2017-05-10T08:00:14.948Z,21.08
2017-05-10T08:01:10.530Z,21.08
2017-05-10T08:02:13.924Z,21.09
2017-05-10T08:03:13.467Z,21.09
2017-05-10T08:04:13.490Z,21.09
2017-05-10T08:05:13.820Z,21.11
2017-05-10T08:06:11.269Z,21.09
2017-05-10T08:07:12.678Z,21.11
2017-05-10T08:08:12.677Z,21.10
2017-05-10T08:09:13.533Z,21.10
2017-05-10T08:10:13.890Z,21.10
2017-05-10T08:11:12.929Z,21.11
2017-05-10T08:12:10.538Z,21.10
2017-05-10T08:13:13.263Z,21.12
2017-05-10T08:14:13.779Z,21.12
2017-05-10T08:15:13.409Z,21.13
2017-05-10T08:16:13.331Z,21.12
2017-05-10T08:17:13.291Z,21.12
2017-05-10T08:18:09.771Z,21.12
2017-05-10T08:19:13.431Z,21.13
2017-05-10T08:20:14.227Z,21.13
2017-05-10T08:21:13.667Z,21.15
2017-05-10T08:22:12.604Z,21.13
2017-05-10T08:23:12.425Z,21.14
2017-05-10T08:24:14.006Z,21.13
2017-05-10T08:25:10.878Z,21.65
2017-05-10T08:26:11.398Z,21.72
2017-05-10T08:27:13.443Z,21.22
2017-05-10T08:28:13.677Z,21.18
2017-05-10T08:29:12.728Z,21.16
2017-05-10T08:30:13.346Z,21.17
2017-05-10T08:31:10.110Z,21.16
2017-05-10T08:32:13.264Z,21.15
2017-05-10T08:33:13.092Z,21.17
2017-05-10T08:34:13.093Z,21.16
2017-05-10T08:35:11.334Z,21.16
2017-05-10T08:36:13.430Z,21.16
2017-05-10T08:37:13.216Z,21.16
2017-05-10T08:38:13.128Z,21.16
2017-05-10T08:39:13.886Z,21.16
2017-05-10T08:40:13.360Z,21.17
2017-05-10T08:41:13.271Z,21.17
2017-05-10T08:42:14.658Z,21.17
2017-05-10T08:43:13.556Z,21.17
2017-05-10T08:44:13.916Z,21.20
2017-05-10T08:45:12.672Z,21.18
2017-05-10T08:46:12.568Z,21.17
2017-05-10T08:47:13.167Z,21.18
2017-05-10T08:48:13.414Z,21.20
2017-05-10T08:49:12.925Z,21.18
2017-05-10T08:50:12.873Z,21.18
2017-05-10T08:51:12.897Z,21.18
2017-05-10T08:52:14.744Z,21.18
2017-05-10T08:53:12.861Z,21.19
2017-05-10T08:54:12.200Z,21.19
2017-05-10T08:55:14.177Z,21.20
2017-05-10T08:56:13.639Z,21.20
2017-05-10T08:57:14.083Z,21.19
2017-05-10T08:58:13.483Z,21.21
2017-05-10T08:59:15.318Z,21.20
2017-05-10T09:00:13.820Z,21.20
2017-05-10T09:01:14.040Z,21.20
2017-05-10T09:02:13.680Z,21.20
2017-05-10T09:03:12.814Z,21.21
2017-05-10T09:04:13.270Z,21.20
2017-05-10T09:05:13.408Z,21.21
2017-05-10T09:06:12.600Z,21.21
2017-05-10T09:07:12.653Z,21.22
2017-05-10T09:08:13.350Z,21.22
2017-05-10T09:09:14.999Z,21.23
2017-05-10T09:10:13.730Z,21.22
2017-05-10T09:11:12.780Z,21.21
2017-05-10T09:12:14.152Z,21.21
2017-05-10T09:13:12.964Z,21.21
2017-05-10T09:14:13.567Z,21.22
2017-05-10T09:15:12.336Z,21.22
2017-05-10T09:16:13.665Z,21.26
2017-05-10T09:17:13.245Z,21.23
2017-05-10T09:18:10.271Z,21.22
2017-05-10T09:19:14.123Z,21.22
2017-05-10T09:20:13.696Z,21.22
2017-05-10T09:21:12.815Z,21.23
2017-05-10T09:22:14.954Z,21.23
2017-05-10T09:23:12.837Z,21.22
2017-05-10T09:24:12.263Z,21.23
2017-05-10T09:25:12.886Z,21.26
2017-05-10T09:26:11.547Z,21.23
2017-05-10T09:27:13.097Z,21.24
2017-05-10T09:28:12.831Z,21.24
2017-05-10T09:29:11.237Z,21.23
2017-05-10T09:30:13.284Z,21.23
2017-05-10T09:31:13.178Z,21.25
2017-05-10T09:32:14.969Z,21.24
2017-05-10T09:33:15.241Z,21.24
2017-05-10T09:34:13.799Z,21.25
2017-05-10T09:35:12.703Z,21.25
2017-05-10T09:36:12.853Z,21.27
2017-05-10T09:37:11.098Z,21.25
2017-05-10T09:38:13.246Z,21.78
2017-05-10T09:39:13.953Z,21.83
2017-05-10T09:40:13.107Z,21.54
2017-05-10T09:41:13.467Z,21.34
2017-05-10T09:42:13.198Z,21.30
2017-05-10T09:43:14.017Z,21.28
2017-05-10T09:44:13.356Z,21.27
2017-05-10T09:45:13.910Z,21.31
2017-05-10T09:46:12.991Z,21.26
2017-05-10T09:47:14.247Z,21.26
2017-05-10T09:48:14.736Z,21.26
2017-05-10T09:49:12.907Z,21.26
2017-05-10T09:50:12.620Z,21.27
2017-05-10T09:51:13.048Z,21.26
2017-05-10T09:52:12.725Z,21.27
2017-05-10T09:53:12.869Z,21.32
2017-05-10T09:54:15.089Z,21.27
2017-05-10T09:55:12.700Z,21.27
2017-05-10T09:56:14.005Z,21.29
2017-05-10T09:57:12.924Z,21.28
2017-05-10T09:58:15.339Z,21.27
2017-05-10T09:59:12.614Z,21.27
2017-05-10T10:00:12.631Z,21.28
2017-05-10T10:01:10.320Z,21.27
2017-05-10T10:02:14.087Z,21.27
2017-05-10T10:03:13.367Z,21.27
2017-05-10T10:04:14.576Z,21.27
2017-05-10T10:05:13.452Z,21.28
2017-05-10T10:06:14.769Z,21.27
2017-05-10T10:07:12.727Z,21.28
2017-05-10T10:08:13.097Z,21.28
2017-05-10T10:09:14.041Z,21.28
2017-05-10T10:10:13.510Z,21.29
2017-05-10T10:11:14.094Z,21.28
2017-05-10T10:12:12.833Z,21.28
2017-05-10T10:13:12.776Z,21.29
2017-05-10T10:14:12.739Z,21.29
2017-05-10T10:15:13.061Z,21.30
2017-05-10T10:16:18.664Z,21.33
2017-05-10T10:17:12.775Z,21.33
2017-05-10T10:18:13.370Z,21.30
2017-05-10T10:19:15.753Z,21.30
2017-05-10T10:20:13.698Z,21.30
2017-05-10T10:21:13.366Z,21.30
2017-05-10T10:22:13.617Z,21.30
2017-05-10T10:23:13.141Z,21.31
2017-05-10T10:24:14.544Z,21.30
2017-05-10T10:25:14.445Z,21.31
2017-05-10T10:26:13.500Z,21.31
2017-05-10T10:27:13.170Z,21.33
2017-05-10T10:28:13.265Z,21.31
2017-05-10T10:29:10.684Z,21.31
2017-05-10T10:30:14.626Z,21.32
2017-05-10T10:31:13.204Z,21.32
2017-05-10T10:32:13.515Z,21.32
2017-05-10T10:33:13.974Z,21.32
2017-05-10T10:34:13.943Z,21.34
2017-05-10T10:35:15.377Z,21.32
2017-05-10T10:36:13.258Z,21.32
2017-05-10T10:37:15.218Z,21.33
2017-05-10T10:38:13.382Z,21.33
2017-05-10T10:39:10.311Z,21.33
2017-05-10T10:40:13.522Z,21.33
2017-05-10T10:41:18.737Z,21.32
2017-05-10T10:42:13.332Z,21.38
2017-05-10T10:43:13.482Z,21.32
2017-05-10T10:44:13.329Z,21.33
2017-05-10T10:45:13.813Z,21.34
2017-05-10T10:46:12.855Z,21.34
2017-05-10T10:47:13.820Z,21.35
2017-05-10T10:48:13.224Z,21.34
2017-05-10T10:49:14.354Z,21.35
2017-05-10T10:50:22.312Z,21.34
2017-05-10T10:51:14.366Z,21.36
2017-05-10T10:52:13.417Z,21.36
2017-05-10T10:53:14.725Z,21.37
2017-05-10T10:54:14.376Z,21.35
2017-05-10T10:55:14.723Z,21.36
2017-05-10T10:56:13.255Z,21.35
2017-05-10T10:57:14.916Z,21.35
2017-05-10T10:58:15.086Z,21.36
2017-05-10T10:59:13.562Z,21.36
2017-05-10T11:00:14.330Z,21.36
2017-05-10T11:01:14.094Z,21.39
2017-05-10T11:02:13.944Z,21.36
2017-05-10T11:03:12.852Z,21.37
2017-05-10T11:04:13.288Z,21.35
2017-05-10T11:05:14.057Z,21.36
2017-05-10T11:06:13.551Z,21.36
2017-05-10T11:07:14.100Z,21.36
2017-05-10T11:08:09.913Z,21.36
2017-05-10T11:09:14.019Z,21.36
2017-05-10T11:10:12.944Z,21.36
2017-05-10T11:11:13.733Z,21.36
2017-05-10T11:12:13.999Z,21.37
2017-05-10T11:13:12.823Z,21.36
2017-05-10T11:14:12.642Z,21.37
2017-05-10T11:15:13.374Z,21.37
2017-05-10T11:16:13.095Z,21.36
2017-05-10T11:17:13.565Z,21.37
2017-05-10T11:18:15.092Z,21.36
2017-05-10T11:19:13.384Z,21.39
2017-05-10T11:20:13.171Z,21.37
2017-05-10T11:21:13.829Z,21.37
2017-05-10T11:22:12.834Z,21.39
2017-05-10T11:23:13.340Z,21.39
2017-05-10T11:24:14.655Z,21.43
2017-05-10T11:25:12.022Z,21.37
2017-05-10T11:26:13.391Z,21.37
2017-05-10T11:27:14.308Z,21.38
2017-05-10T11:28:13.438Z,21.38
2017-05-10T11:29:13.139Z,21.37
2017-05-10T11:30:13.548Z,21.41
2017-05-10T11:31:13.048Z,21.38
2017-05-10T11:32:13.128Z,21.38
2017-05-10T11:33:14.177Z,21.37
2017-05-10T11:34:11.995Z,21.38
2017-05-10T11:35:13.975Z,21.38
2017-05-10T11:36:13.063Z,21.43
2017-05-10T11:37:12.827Z,21.38
2017-05-10T11:38:13.163Z,21.41
2017-05-10T11:39:13.843Z,21.38
2017-05-10T11:40:12.420Z,21.39
2017-05-10T11:41:13.185Z,21.39
2017-05-10T11:42:12.989Z,21.38
2017-05-10T11:43:13.118Z,21.41
2017-05-10T11:44:13.422Z,21.38
2017-05-10T11:45:13.641Z,21.41
2017-05-10T11:46:14.029Z,21.39
2017-05-10T11:47:13.723Z,21.39
2017-05-10T11:48:15.041Z,21.39
2017-05-10T11:49:14.332Z,21.39
2017-05-10T11:50:12.205Z,21.39
2017-05-10T11:51:14.368Z,21.39
2017-05-10T11:52:13.629Z,21.39
2017-05-10T11:53:13.144Z,21.39
2017-05-10T11:54:14.595Z,21.40
2017-05-10T11:55:13.011Z,21.44
2017-05-10T11:56:13.099Z,21.40
2017-05-10T11:57:11.204Z,21.39
2017-05-10T11:58:13.187Z,21.39
2017-05-10T11:59:13.537Z,21.41
2017-05-10T12:00:13.273Z,21.40
2017-05-10T12:01:15.121Z,21.40
2017-05-10T12:02:13.803Z,21.40
2017-05-10T12:03:12.874Z,21.44
2017-05-10T12:04:12.624Z,21.41
2017-05-10T12:05:12.557Z,21.40
2017-05-10T12:06:12.563Z,21.41
2017-05-10T12:07:13.252Z,21.41
2017-05-10T12:08:13.774Z,21.40
2017-05-10T12:09:13.544Z,21.40
2017-05-10T12:10:13.578Z,21.45
2017-05-10T12:11:13.697Z,21.41
2017-05-10T12:12:13.323Z,21.43
2017-05-10T12:13:13.359Z,21.41
2017-05-10T12:14:13.329Z,21.42
2017-05-10T12:15:13.282Z,21.41
2017-05-10T12:16:10.819Z,21.41
2017-05-10T12:17:14.907Z,21.41
2017-05-10T12:18:13.217Z,21.42
2017-05-10T12:19:13.393Z,21.42
2017-05-10T12:20:14.213Z,21.44
2017-05-10T12:21:13.325Z,21.43
2017-05-10T12:22:13.415Z,21.43
2017-05-10T12:23:13.295Z,21.42
2017-05-10T12:24:14.236Z,21.43
2017-05-10T12:25:13.483Z,21.45
2017-05-10T12:26:14.142Z,21.45
2017-05-10T12:27:13.468Z,21.46
2017-05-10T12:28:13.056Z,21.43
2017-05-10T12:29:13.641Z,21.44
2017-05-10T12:30:13.128Z,21.50
2017-05-10T12:31:14.454Z,21.44
2017-05-10T12:32:13.520Z,21.45
2017-05-10T12:33:13.362Z,21.45
2017-05-10T12:34:15.002Z,21.44
2017-05-10T12:35:14.372Z,21.44
2017-05-10T12:36:13.770Z,21.45
2017-05-10T12:37:13.064Z,21.46
2017-05-10T12:38:13.630Z,21.45
2017-05-10T12:39:14.641Z,21.45
2017-05-10T12:40:13.253Z,21.45
2017-05-10T12:41:14.381Z,21.46
2017-05-10T12:42:13.843Z,21.46
2017-05-10T12:43:15.032Z,21.46
2017-05-10T12:44:13.064Z,21.46
2017-05-10T12:45:15.911Z,21.46
2017-05-10T12:46:13.436Z,21.46
2017-05-10T12:47:14.310Z,21.49
2017-05-10T12:48:11.229Z,20.70
2017-05-10T12:49:13.229Z,22.04
2017-05-10T12:50:13.572Z,22.07
2017-05-10T12:51:12.604Z,21.56
2017-05-10T12:52:12.471Z,21.52